createdAt,value
2018-04-29T00:02:14.028Z,17.50
2018-04-29T00:04:41.492Z,17.50
2018-04-29T00:07:09.772Z,17.40
2018-04-29T00:09:37.220Z,17.40
2018-04-29T00:12:04.679Z,17.30
2018-04-29T00:14:32.144Z,17.30
2018-04-29T00:16:59.602Z,17.10
2018-04-29T00:19:27.192Z,17.00
2018-04-29T00:21:54.706Z,16.90
2018-04-29T00:24:22.232Z,16.90
2018-04-29T00:26:49.786Z,16.90
2018-04-29T00:29:17.273Z,16.90
2018-04-29T00:31:44.731Z,16.90
2018-04-29T00:34:12.353Z,17.00
2018-04-29T00:36:39.798Z,17.10
2018-04-29T00:39:07.280Z,17.10
2018-04-29T00:41:34.744Z,17.10
2018-04-29T00:44:02.208Z,17.10
2018-04-29T00:46:29.842Z,17.00
2018-04-29T00:48:57.311Z,16.90
2018-04-29T00:54:24.096Z,16.90
2018-04-29T00:56:51.577Z,16.70
2018-04-29T00:59:19.046Z,16.60
2018-04-29T01:01:47.283Z,16.60
2018-04-29T01:04:14.860Z,16.50
2018-04-29T01:06:42.322Z,16.60
2018-04-29T01:09:10.589Z,16.50
2018-04-29T01:11:38.055Z,16.50
2018-04-29T01:14:06.476Z,16.50
2018-04-29T01:16:33.984Z,16.40
2018-04-29T01:19:02.224Z,16.40
2018-04-29T01:21:29.725Z,16.30
2018-04-29T01:23:57.976Z,16.40
2018-04-29T01:26:25.443Z,16.30
2018-04-29T01:28:52.924Z,16.30
2018-04-29T01:31:21.157Z,16.30
2018-04-29T01:33:48.651Z,16.20
2018-04-29T01:36:16.890Z,16.30
2018-04-29T01:38:44.361Z,16.20
2018-04-29T01:41:13.327Z,16.20
2018-04-29T01:43:40.860Z,16.20
2018-04-29T01:46:08.425Z,16.30
2018-04-29T01:48:35.888Z,16.30
2018-04-29T01:51:03.338Z,16.30
2018-04-29T01:53:30.814Z,16.30
2018-04-29T01:55:58.272Z,16.30
2018-04-29T01:58:25.726Z,16.20
2018-04-29T02:00:53.194Z,16.30
2018-04-29T02:03:21.439Z,16.20
2018-04-29T02:05:48.944Z,16.20
2018-04-29T02:08:16.408Z,16.20
2018-04-29T02:10:43.869Z,16.20
2018-04-29T02:13:12.090Z,16.20
2018-04-29T02:15:39.619Z,16.20
2018-04-29T02:18:07.211Z,16.20
2018-04-29T02:20:34.696Z,16.10
2018-04-29T02:23:02.164Z,16.10
2018-04-29T02:25:29.695Z,16.00
2018-04-29T02:27:57.201Z,16.00
2018-04-29T02:30:24.689Z,15.90
2018-04-29T02:32:52.161Z,15.90
2018-04-29T02:35:19.643Z,15.90
2018-04-29T02:37:47.107Z,15.90
2018-04-29T02:40:14.776Z,15.80
2018-04-29T02:42:42.325Z,15.80
2018-04-29T02:45:09.888Z,15.80
2018-04-29T02:47:37.354Z,15.80
2018-04-29T02:50:05.679Z,15.80
2018-04-29T02:52:33.203Z,15.80
2018-04-29T02:55:01.551Z,15.90
2018-04-29T02:57:29.013Z,15.90
2018-04-29T02:59:56.524Z,15.90
2018-04-29T03:02:24.031Z,15.90
2018-04-29T03:04:52.298Z,15.90
2018-04-29T03:07:19.971Z,15.90
2018-04-29T03:09:47.523Z,16.00
2018-04-29T03:12:15.700Z,15.90
2018-04-29T03:14:43.244Z,15.90
2018-04-29T03:17:10.726Z,15.80
2018-04-29T03:19:38.955Z,15.70
2018-04-29T03:22:06.424Z,15.60
2018-04-29T03:24:33.884Z,15.70
2018-04-29T03:27:01.458Z,15.60
2018-04-29T03:29:30.508Z,15.50
2018-04-29T03:31:58.003Z,15.50
2018-04-29T03:34:25.466Z,15.60
2018-04-29T03:36:52.938Z,15.40
2018-04-29T03:39:21.944Z,15.30
2018-04-29T03:41:50.554Z,15.30
2018-04-29T03:44:18.046Z,15.20
2018-04-29T03:46:45.682Z,15.20
2018-04-29T03:49:13.147Z,15.30
2018-04-29T03:51:40.607Z,15.30
2018-04-29T03:54:08.463Z,15.30
2018-04-29T03:56:36.018Z,15.20
2018-04-29T03:59:15.292Z,15.10
2018-04-29T04:01:54.809Z,15.10
2018-04-29T04:04:22.282Z,15.00
2018-04-29T04:06:49.854Z,15.00
2018-04-29T04:09:17.417Z,15.00
2018-04-29T04:11:45.722Z,15.10
2018-04-29T04:14:13.191Z,15.00
2018-04-29T04:16:40.664Z,15.10
2018-04-29T04:19:08.248Z,15.10
2018-04-29T04:21:35.705Z,15.20
2018-04-29T04:24:03.240Z,15.30
2018-04-29T04:26:30.843Z,15.30
2018-04-29T04:28:59.064Z,15.20
2018-04-29T04:31:26.534Z,15.10
2018-04-29T04:33:54.790Z,15.20
2018-04-29T04:36:22.261Z,15.20
2018-04-29T04:38:49.745Z,15.30
2018-04-29T04:41:17.207Z,15.30
2018-04-29T04:43:44.680Z,15.40
2018-04-29T04:46:12.903Z,15.30
2018-04-29T04:48:40.376Z,15.30
2018-04-29T04:51:07.848Z,15.30
2018-04-29T04:53:35.394Z,15.30
2018-04-29T04:56:02.863Z,15.30
2018-04-29T04:58:30.347Z,15.30
2018-04-29T05:00:58.580Z,15.30
2018-04-29T05:03:26.061Z,15.30
2018-04-29T05:05:53.598Z,15.30
2018-04-29T05:08:21.157Z,15.30
2018-04-29T05:10:48.630Z,15.40
2018-04-29T05:13:16.095Z,15.40
2018-04-29T05:15:43.565Z,15.50
2018-04-29T05:18:11.803Z,15.70
2018-04-29T05:20:39.302Z,15.60
2018-04-29T05:23:07.543Z,15.80
2018-04-29T05:25:35.164Z,15.80
2018-04-29T05:28:03.430Z,15.90
2018-04-29T05:30:30.894Z,16.00
2018-04-29T05:32:58.454Z,16.10
2018-04-29T05:35:25.950Z,16.20
2018-04-29T05:37:53.421Z,16.40
2018-04-29T05:40:20.907Z,16.50
2018-04-29T05:42:48.358Z,16.70
2018-04-29T05:45:15.841Z,16.80
2018-04-29T05:47:43.330Z,17.00
2018-04-29T05:50:10.816Z,17.10
2018-04-29T05:52:39.057Z,17.40
2018-04-29T05:55:06.537Z,17.30
2018-04-29T05:57:35.516Z,17.60
2018-04-29T06:00:02.981Z,17.60
2018-04-29T06:02:30.446Z,17.70
2018-04-29T06:04:58.916Z,17.70
2018-04-29T06:07:26.475Z,17.70
2018-04-29T06:09:55.473Z,17.60
2018-04-29T06:12:24.464Z,17.60
2018-04-29T06:14:51.976Z,17.60
2018-04-29T06:17:19.491Z,17.80
2018-04-29T06:19:47.128Z,17.90
2018-04-29T06:22:14.704Z,18.00
2018-04-29T06:24:42.162Z,18.20
2018-04-29T06:27:09.814Z,18.40
2018-04-29T06:29:38.044Z,18.60
2018-04-29T06:32:05.656Z,18.60
2018-04-29T06:34:33.118Z,18.70
2018-04-29T06:37:01.387Z,18.60
2018-04-29T06:39:28.944Z,18.50
2018-04-29T06:41:56.416Z,18.70
2018-04-29T06:44:24.652Z,19.00
2018-04-29T06:46:52.295Z,18.90
2018-04-29T06:49:20.462Z,19.40
2018-04-29T06:51:47.936Z,19.30
2018-04-29T06:54:15.415Z,19.50
2018-04-29T06:56:42.885Z,19.50
2018-04-29T06:59:10.807Z,19.40
2018-04-29T07:01:38.387Z,19.40
2018-04-29T07:04:06.045Z,19.20
2018-04-29T07:06:33.519Z,19.20
2018-04-29T07:09:01.097Z,19.10
2018-04-29T07:11:29.540Z,19.20
2018-04-29T07:13:57.083Z,19.10
2018-04-29T07:16:24.602Z,19.20
2018-04-29T07:18:52.996Z,19.30
2018-04-29T07:21:20.656Z,19.30
2018-04-29T07:23:48.227Z,19.50
2018-04-29T07:26:15.800Z,19.60
2018-04-29T07:28:43.344Z,19.70
2018-04-29T07:31:11.236Z,19.80
2018-04-29T07:33:38.775Z,20.00
2018-04-29T07:36:06.296Z,20.00
2018-04-29T07:38:34.641Z,20.30
2018-04-29T07:41:02.217Z,20.20
2018-04-29T07:43:29.886Z,20.30
2018-04-29T07:45:57.443Z,20.50
2018-04-29T07:48:25.009Z,20.50
2018-04-29T07:50:53.324Z,20.50
2018-04-29T07:53:20.959Z,20.40
2018-04-29T07:55:49.736Z,20.90
2018-04-29T07:58:18.181Z,21.10
2018-04-29T08:00:45.727Z,21.10
2018-04-29T08:03:14.017Z,21.10
2018-04-29T08:05:41.477Z,21.10
2018-04-29T08:08:08.954Z,21.00
2018-04-29T08:10:36.459Z,21.00
2018-04-29T08:13:03.916Z,20.90
2018-04-29T08:15:31.429Z,20.90
2018-04-29T08:17:58.830Z,21.00
2018-04-29T08:20:26.289Z,20.90
2018-04-29T08:22:53.742Z,20.90
2018-04-29T08:25:22.120Z,20.80
2018-04-29T08:27:49.628Z,20.60
2018-04-29T08:30:18.868Z,20.30
2018-04-29T08:32:46.333Z,20.30
2018-04-29T08:35:13.791Z,20.30
2018-04-29T08:37:41.267Z,20.30
2018-04-29T08:40:08.746Z,20.30
2018-04-29T08:42:36.208Z,20.30
2018-04-29T08:45:03.667Z,20.50
2018-04-29T08:47:32.630Z,20.90
2018-04-29T08:50:00.166Z,20.90
2018-04-29T08:52:27.717Z,21.10
2018-04-29T08:54:55.210Z,21.30
2018-04-29T08:57:22.672Z,21.50
2018-04-29T09:02:22.718Z,22.00
2018-04-29T09:04:50.181Z,22.40
2018-04-29T09:07:17.734Z,22.80
2018-04-29T09:09:45.265Z,23.40
2018-04-29T09:12:12.725Z,24.00
2018-04-29T09:14:40.311Z,24.30
2018-04-29T09:17:07.765Z,24.60
2018-04-29T09:19:35.240Z,24.70
2018-04-29T09:22:03.498Z,24.70
2018-04-29T09:24:30.973Z,24.60
2018-04-29T09:26:59.200Z,25.80
2018-04-29T09:29:26.671Z,25.70
2018-04-29T09:31:54.132Z,26.40
2018-04-29T09:34:21.702Z,26.80
2018-04-29T09:36:50.008Z,26.90
2018-04-29T09:39:17.427Z,27.00
2018-04-29T09:41:45.012Z,27.30
2018-04-29T09:44:12.456Z,27.20
2018-04-29T09:46:40.722Z,26.30
2018-04-29T09:49:08.179Z,26.20
2018-04-29T09:51:35.649Z,26.20
2018-04-29T09:54:03.965Z,26.00
2018-04-29T09:56:31.424Z,25.90
2018-04-29T09:58:58.882Z,26.20
2018-04-29T10:01:26.339Z,26.50
2018-04-29T10:03:53.805Z,26.70
2018-04-29T10:06:21.261Z,27.20
2018-04-29T10:08:48.737Z,27.40
2018-04-29T10:11:16.196Z,27.50
2018-04-29T10:13:43.661Z,27.50
2018-04-29T10:16:11.115Z,27.40
2018-04-29T10:18:38.583Z,27.60
2018-04-29T10:21:06.048Z,27.60
2018-04-29T10:23:34.262Z,27.80
2018-04-29T10:26:01.736Z,27.70
2018-04-29T10:28:29.209Z,27.60
2018-04-29T10:30:57.653Z,27.70
2018-04-29T10:33:25.147Z,27.80
2018-04-29T10:35:52.606Z,27.90
2018-04-29T10:38:20.075Z,28.10
2018-04-29T10:40:47.644Z,28.20
2018-04-29T10:43:15.506Z,28.30
2018-04-29T10:45:42.971Z,28.50
2018-04-29T10:48:11.186Z,28.60
2018-04-29T10:50:38.674Z,28.50
2018-04-29T10:53:06.239Z,28.30
2018-04-29T10:55:33.781Z,28.10
2018-04-29T10:58:01.298Z,27.80
2018-04-29T11:00:28.756Z,27.70
2018-04-29T11:02:56.221Z,27.50
2018-04-29T11:05:23.742Z,27.70
2018-04-29T11:07:51.191Z,28.00
2018-04-29T11:10:20.171Z,28.00
2018-04-29T11:12:47.803Z,28.00
2018-04-29T11:15:15.649Z,28.00
2018-04-29T11:17:43.097Z,28.10
2018-04-29T11:20:10.566Z,28.10
2018-04-29T11:22:38.043Z,28.20
2018-04-29T11:25:05.547Z,28.40
2018-04-29T11:27:33.008Z,28.50
2018-04-29T11:30:01.266Z,28.40
2018-04-29T11:32:28.718Z,28.30
2018-04-29T11:34:56.194Z,28.20
2018-04-29T11:37:24.413Z,28.00
2018-04-29T11:39:51.961Z,28.00
2018-04-29T11:42:19.522Z,28.30
2018-04-29T11:44:47.128Z,28.50
2018-04-29T11:47:14.588Z,28.60
2018-04-29T11:49:42.059Z,28.60
2018-04-29T11:52:10.282Z,28.90
2018-04-29T11:54:37.829Z,28.80
2018-04-29T11:57:05.337Z,28.90
2018-04-29T11:59:32.879Z,29.20
2018-04-29T12:02:00.352Z,29.20
2018-04-29T12:04:27.986Z,29.20
2018-04-29T12:06:55.461Z,29.30
2018-04-29T12:09:22.911Z,29.40
2018-04-29T12:11:50.384Z,29.30
2018-04-29T12:14:18.621Z,29.60
2018-04-29T12:16:46.086Z,29.60
2018-04-29T12:19:13.542Z,29.70
2018-04-29T12:21:41.012Z,29.40
2018-04-29T12:24:08.466Z,29.30
2018-04-29T12:26:35.926Z,29.40
2018-04-29T12:29:03.388Z,29.50
2018-04-29T12:31:30.908Z,29.40
2018-04-29T12:33:58.404Z,29.20
2018-04-29T12:36:25.847Z,29.10
2018-04-29T12:38:53.312Z,29.20
2018-04-29T12:41:20.869Z,28.80
2018-04-29T12:43:48.328Z,28.40
2018-04-29T12:46:15.787Z,28.70
2018-04-29T12:48:43.601Z,29.10
2018-04-29T12:51:11.122Z,29.40
2018-04-29T12:53:40.814Z,29.60
2018-04-29T12:56:08.370Z,29.60
2018-04-29T12:58:35.846Z,29.30
2018-04-29T13:01:04.088Z,29.00
2018-04-29T13:03:31.595Z,28.90
2018-04-29T13:05:59.830Z,29.60
2018-04-29T13:08:27.294Z,29.60
2018-04-29T13:10:54.759Z,29.40
2018-04-29T13:13:22.306Z,29.20
2018-04-29T13:15:49.776Z,29.40
2018-04-29T13:18:17.227Z,29.60
2018-04-29T13:20:45.453Z,29.20
2018-04-29T13:23:12.912Z,29.10
2018-04-29T13:25:40.427Z,29.00
2018-04-29T13:28:08.691Z,29.30
2018-04-29T13:30:36.252Z,29.30
2018-04-29T13:33:03.705Z,29.40
2018-04-29T13:35:31.176Z,29.60
2018-04-29T13:37:58.630Z,29.70
2018-04-29T13:40:26.079Z,29.80
2018-04-29T13:42:54.322Z,29.90
2018-04-29T13:45:21.766Z,29.90
2018-04-29T13:47:49.242Z,30.10
2018-04-29T13:50:16.709Z,30.20
2018-04-29T13:52:44.184Z,30.30
2018-04-29T13:55:11.743Z,30.20
2018-04-29T13:57:39.321Z,30.40
2018-04-29T14:00:07.559Z,30.80
2018-04-29T14:02:35.016Z,30.80
2018-04-29T14:05:02.476Z,30.90
2018-04-29T14:07:30.044Z,30.50
2018-04-29T14:09:57.498Z,29.80
2018-04-29T14:12:26.490Z,30.10
2018-04-29T14:14:55.478Z,30.60
2018-04-29T14:17:22.959Z,30.50
2018-04-29T14:19:51.238Z,30.90
2018-04-29T14:22:18.807Z,30.80
2018-04-29T14:24:46.222Z,31.10
2018-04-29T14:27:13.692Z,31.20
2018-04-29T14:29:42.660Z,31.20
2018-04-29T14:32:10.136Z,31.20
2018-04-29T14:34:37.756Z,31.30
2018-04-29T14:37:05.439Z,31.40
2018-04-29T14:39:32.913Z,31.40
2018-04-29T14:42:00.490Z,31.20
2018-04-29T14:44:27.981Z,31.20
2018-04-29T14:46:55.550Z,31.30
2018-04-29T14:49:23.058Z,31.30
2018-04-29T14:51:50.515Z,31.30
2018-04-29T14:54:17.965Z,31.50
2018-04-29T14:56:45.422Z,31.60
2018-04-29T14:59:13.686Z,31.60
2018-04-29T15:01:41.154Z,31.50
2018-04-29T15:04:08.612Z,31.60
2018-04-29T15:06:37.243Z,31.70
2018-04-29T15:09:04.751Z,31.90
2018-04-29T15:11:32.310Z,31.80
2018-04-29T15:14:01.275Z,31.30
2018-04-29T15:16:28.738Z,31.30
2018-04-29T15:18:59.908Z,31.20
2018-04-29T15:21:27.460Z,31.10
2018-04-29T15:23:56.440Z,31.10
2018-04-29T15:26:23.905Z,31.10
2018-04-29T15:28:51.484Z,31.20
2018-04-29T15:31:18.930Z,31.20
2018-04-29T15:33:46.396Z,31.10
2018-04-29T15:36:13.878Z,30.80
2018-04-29T15:38:41.488Z,30.80
2018-04-29T15:41:09.059Z,30.90
2018-04-29T15:43:36.614Z,31.00
2018-04-29T15:46:04.072Z,31.00
2018-04-29T15:48:31.571Z,30.80
2018-04-29T15:50:59.019Z,30.50
2018-04-29T15:53:27.320Z,30.50
2018-04-29T15:55:54.776Z,30.50
2018-04-29T15:58:22.302Z,30.70
2018-04-29T16:00:50.610Z,30.70
2018-04-29T16:03:18.111Z,30.70
2018-04-29T16:05:46.333Z,30.80
2018-04-29T16:08:13.847Z,30.70
2018-04-29T16:10:42.063Z,30.80
2018-04-29T16:13:09.580Z,30.70
2018-04-29T16:15:37.041Z,30.70
2018-04-29T16:18:04.542Z,30.40
2018-04-29T16:20:32.052Z,30.40
2018-04-29T16:23:00.278Z,30.10
2018-04-29T16:25:27.809Z,30.10
2018-04-29T16:27:56.109Z,29.90
2018-04-29T16:30:23.800Z,29.90
2018-04-29T16:32:51.418Z,29.70
2018-04-29T16:35:19.191Z,29.50
2018-04-29T16:37:46.705Z,29.30
2018-04-29T16:40:14.208Z,29.10
2018-04-29T16:42:41.739Z,29.20
2018-04-29T16:45:10.030Z,29.20
2018-04-29T16:47:38.253Z,29.20
2018-04-29T16:50:05.763Z,29.20
2018-04-29T16:52:33.287Z,29.10
2018-04-29T16:55:00.788Z,29.00
2018-04-29T16:57:28.314Z,28.90
2018-04-29T16:59:55.934Z,28.80
2018-04-29T17:02:23.428Z,28.70
2018-04-29T17:04:50.964Z,28.60
2018-04-29T17:07:18.429Z,28.60
2018-04-29T17:09:45.891Z,28.40
2018-04-29T17:12:13.438Z,28.30
2018-04-29T17:14:41.065Z,28.20
2018-04-29T17:17:08.758Z,28.20
2018-04-29T17:19:36.309Z,28.20
2018-04-29T17:22:03.899Z,28.30
2018-04-29T17:24:31.467Z,28.00
2018-04-29T17:26:59.806Z,27.40
2018-04-29T17:29:27.514Z,27.40
2018-04-29T17:31:54.977Z,27.10
2018-04-29T17:34:23.288Z,26.60
2018-04-29T17:36:50.766Z,26.50
2018-04-29T17:39:18.258Z,26.40
2018-04-29T17:41:46.897Z,25.80
2018-04-29T17:44:14.479Z,25.80
2018-04-29T17:46:41.886Z,25.70
2018-04-29T17:49:09.382Z,25.60
2018-04-29T17:51:37.004Z,25.40
2018-04-29T17:54:04.584Z,25.30
2018-04-29T17:56:32.160Z,25.10
2018-04-29T17:58:59.653Z,25.00
2018-04-29T18:01:28.056Z,24.90
2018-04-29T18:03:55.705Z,24.80
2018-04-29T18:06:24.136Z,24.80
2018-04-29T18:08:51.805Z,24.70
2018-04-29T18:11:19.369Z,24.70
2018-04-29T18:13:47.706Z,24.60
2018-04-29T18:16:15.194Z,24.40
2018-04-29T18:18:42.685Z,24.30
2018-04-29T18:21:11.340Z,24.20
2018-04-29T18:23:38.841Z,24.20
2018-04-29T18:26:06.330Z,24.10
2018-04-29T18:28:33.846Z,24.10
2018-04-29T18:31:02.330Z,23.90
2018-04-29T18:33:30.592Z,23.80
2018-04-29T18:35:58.985Z,23.70
2018-04-29T18:38:26.477Z,23.70
2018-04-29T18:40:53.980Z,23.60
2018-04-29T18:43:21.453Z,23.50
2018-04-29T18:45:49.797Z,23.40
2018-04-29T18:48:17.372Z,23.40
2018-04-29T18:50:44.916Z,23.30
2018-04-29T18:53:13.064Z,23.20
2018-04-29T18:55:40.532Z,23.20
2018-04-29T18:58:08.118Z,23.20
2018-04-29T19:00:35.802Z,23.10
2018-04-29T19:03:05.295Z,23.10
2018-04-29T19:05:45.686Z,23.00
2018-04-29T19:08:13.308Z,23.00
2018-04-29T19:10:40.835Z,23.00
2018-04-29T19:13:08.425Z,23.00
2018-04-29T19:15:36.664Z,22.90
2018-04-29T19:18:04.147Z,22.80
2018-04-29T19:20:31.683Z,22.80
2018-04-29T19:22:59.142Z,22.80
2018-04-29T19:25:26.721Z,22.80
2018-04-29T19:27:54.191Z,22.70
2018-04-29T19:30:22.430Z,22.60
2018-04-29T19:32:49.902Z,22.60
2018-04-29T19:35:17.375Z,22.60
2018-04-29T19:37:45.630Z,22.40
2018-04-29T19:40:13.107Z,22.40
2018-04-29T19:42:40.573Z,22.40
2018-04-29T19:45:08.808Z,22.40
2018-04-29T19:47:36.394Z,22.40
2018-04-29T19:50:03.844Z,22.40
2018-04-29T19:52:31.310Z,22.30
2018-04-29T19:54:59.640Z,22.20
2018-04-29T19:57:27.104Z,22.20
2018-04-29T19:59:55.483Z,22.10
2018-04-29T20:02:23.211Z,22.00
2018-04-29T20:04:50.819Z,22.00
2018-04-29T20:07:18.424Z,21.90
2018-04-29T20:09:45.962Z,21.90
2018-04-29T20:12:13.444Z,21.90
2018-04-29T20:14:40.894Z,21.90
2018-04-29T20:17:08.360Z,21.90
2018-04-29T20:19:35.884Z,21.80
2018-04-29T20:22:03.387Z,21.70
2018-04-29T20:24:30.854Z,21.60
2018-04-29T20:26:58.344Z,21.60
2018-04-29T20:29:25.966Z,21.60
2018-04-29T20:31:53.612Z,21.60
2018-04-29T20:34:22.389Z,21.60
2018-04-29T20:36:50.710Z,21.40
2018-04-29T20:39:18.185Z,21.40
2018-04-29T20:41:45.657Z,21.40
2018-04-29T20:44:13.195Z,21.40
2018-04-29T20:46:40.672Z,21.40
2018-04-29T20:49:08.128Z,21.20
2018-04-29T20:51:35.659Z,21.20
2018-04-29T20:54:03.191Z,21.10
2018-04-29T20:56:30.658Z,21.10
2018-04-29T20:58:58.204Z,21.10
2018-04-29T21:01:25.671Z,21.10
2018-04-29T21:03:53.131Z,21.00
2018-04-29T21:06:20.599Z,21.00
2018-04-29T21:08:48.050Z,21.00
2018-04-29T21:11:15.514Z,21.00
2018-04-29T21:13:43.048Z,21.00
2018-04-29T21:16:10.574Z,21.00
2018-04-29T21:18:38.808Z,20.90
2018-04-29T21:21:06.260Z,20.80
2018-04-29T21:23:33.736Z,20.80
2018-04-29T21:26:01.198Z,20.80
2018-04-29T21:28:28.668Z,20.70
2018-04-29T21:30:56.882Z,20.70
2018-04-29T21:33:24.352Z,20.60
2018-04-29T21:35:51.825Z,20.50
2018-04-29T21:38:19.397Z,20.40
2018-04-29T21:40:46.854Z,20.40
2018-04-29T21:43:14.332Z,20.40
2018-04-29T21:45:42.573Z,20.40
2018-04-29T21:48:10.438Z,20.30
2018-04-29T21:50:37.917Z,20.40
2018-04-29T21:53:05.401Z,20.40
2018-04-29T21:55:33.638Z,20.40
2018-04-29T21:58:01.109Z,20.30
2018-04-29T22:00:28.673Z,20.40
2018-04-29T22:02:56.130Z,20.30
2018-04-29T22:05:24.492Z,20.30
2018-04-29T22:07:51.990Z,20.20
2018-04-29T22:10:19.456Z,20.20
2018-04-29T22:12:46.906Z,20.20
2018-04-29T22:15:14.427Z,20.20
2018-04-29T22:17:42.907Z,20.10
2018-04-29T22:20:10.410Z,20.10
2018-04-29T22:22:37.855Z,20.10
2018-04-29T22:25:05.367Z,20.00
2018-04-29T22:27:32.827Z,20.00
2018-04-29T22:30:00.289Z,20.00
2018-04-29T22:32:29.317Z,19.90
2018-04-29T22:34:56.770Z,19.80
2018-04-29T22:37:24.228Z,19.80
2018-04-29T22:39:51.708Z,19.80
2018-04-29T22:42:19.209Z,19.80
2018-04-29T22:44:46.672Z,19.80
2018-04-29T22:47:14.132Z,19.70
2018-04-29T22:49:41.598Z,19.60
2018-04-29T22:52:09.906Z,19.50
2018-04-29T22:54:37.449Z,19.40
2018-04-29T22:57:04.908Z,19.50
2018-04-29T22:59:32.376Z,19.50
2018-04-29T23:01:59.884Z,19.60
2018-04-29T23:04:27.439Z,19.50
2018-04-29T23:06:54.938Z,19.50
2018-04-29T23:09:22.407Z,19.40
2018-04-29T23:11:49.922Z,19.40
2018-04-29T23:14:17.404Z,19.30
2018-04-29T23:16:44.937Z,19.20
2018-04-29T23:19:12.480Z,19.20
2018-04-29T23:21:40.039Z,19.20
2018-04-29T23:24:08.172Z,19.20
2018-04-29T23:26:35.741Z,19.20
2018-04-29T23:29:04.150Z,19.10
2018-04-29T23:31:31.614Z,19.10
2018-04-29T23:33:59.071Z,19.10
2018-04-29T23:36:26.619Z,19.10
2018-04-29T23:38:54.074Z,19.10
2018-04-29T23:41:22.121Z,19.10
2018-04-29T23:43:49.598Z,19.10
2018-04-29T23:46:17.166Z,19.00
2018-04-29T23:48:45.445Z,19.00
2018-04-29T23:51:12.925Z,18.90
2018-04-29T23:53:41.170Z,18.90
2018-04-29T23:56:08.638Z,18.90
2018-04-29T23:58:37.599Z,18.90
